Time;durP1;ratioP1;P1;durP2;ratioP2;P2;SDS_P1;SDS_P2;PMS_P1;PMS_P2;Temp;Humidity;BMP_temperature;BMP_pressure;BME280_temperature;BME280_humidity;BME280_pressure;Samples;Min_cycle;Max_cycle;Signal;HPM_P1;HPM_P2
2022/06/06 00:00:24;;;;;;;3.60;1.70;;;;;;;19.10;54.94;100330.53;5591094;31;35393;-73
2022/06/06 00:03:30;;;;;;;2.97;1.60;;;;;;;19.09;53.98;100335.09;5590970;31;34906;-72
2022/06/06 00:06:32;;;;;;;1.60;1.40;;;;;;;19.01;54.92;100332.72;5590590;31;34187;-71
2022/06/06 00:09:36;;;;;;;2.92;1.80;;;;;;;18.98;54.85;100338.53;5590630;31;34138;-72
2022/06/06 00:12:38;;;;;;;2.45;1.52;;;;;;;18.97;54.83;100319.94;5590662;31;34883;-71
2022/06/06 00:15:41;;;;;;;2.22;1.75;;;;;;;19.00;54.95;100314.94;5590616;31;35447;-71
2022/06/06 00:18:44;;;;;;;2.45;1.70;;;;;;;18.95;54.99;100304.03;5589838;31;34571;-71
2022/06/06 00:21:47;;;;;;;2.40;1.67;;;;;;;18.92;54.84;100307.19;5589799;31;34252;-71
2022/06/06 00:24:50;;;;;;;2.25;1.70;;;;;;;18.89;55.76;100298.72;5589691;31;35079;-71
2022/06/06 00:27:52;;;;;;;1.92;1.55;;;;;;;18.80;55.48;100305.44;5590471;31;34398;-71
2022/06/06 00:30:57;;;;;;;2.00;1.67;;;;;;;18.84;55.23;100312.81;5590402;31;34152;-71
2022/06/06 00:37:29;;;;;;;2.55;1.80;;;;;;;18.72;56.19;100317.31;5590486;31;34895;-71
2022/06/06 00:40:33;;;;;;;2.37;1.80;;;;;;;18.75;56.41;100316.03;5590261;31;34198;-72
2022/06/06 00:43:35;;;;;;;2.20;2.00;;;;;;;18.57;57.43;100327.59;5589284;31;34150;-72
2022/06/06 00:46:43;;;;;;;1.83;1.70;;;;;;;18.52;58.19;100335.44;5590204;31;34339;-71
2022/06/06 00:49:54;;;;;;;3.35;1.90;;;;;;;18.78;58.14;100343.31;5590152;31;34166;-71
2022/06/06 00:52:59;;;;;;;2.15;1.75;;;;;;;18.51;57.94;100336.47;5590149;31;34899;-71
2022/06/06 00:56:29;;;;;;;2.30;1.73;;;;;;;18.51;58.98;100342.69;5590036;31;34916;-71
2022/06/06 00:59:35;;;;;;;3.47;2.15;;;;;;;18.40;58.95;100346.06;5584324;31;35368;-70
2022/06/06 01:02:39;;;;;;;2.00;1.80;;;;;;;18.21;59.50;100353.25;5590115;31;34275;-71
2022/06/06 01:05:46;;;;;;;5.22;2.12;;;;;;;18.20;61.07;100346.22;5589231;31;34232;-72
2022/06/06 01:08:50;;;;;;;2.30;2.00;;;;;;;18.04;62.67;100362.06;5590219;31;35352;-72
2022/06/06 01:12:05;;;;;;;5.95;1.95;;;;;;;17.90;61.91;100373.91;5590075;31;34189;-72
2022/06/06 01:15:12;;;;;;;1.77;1.67;;;;;;;17.85;62.86;100379.94;5589989;31;34561;-73
2022/06/06 01:18:38;;;;;;;2.08;1.85;;;;;;;17.85;63.46;100396.03;5589995;31;34322;-71
2022/06/06 01:22:39;;;;;;;2.60;1.80;;;;;;;17.90;62.95;100398.91;5582344;31;34852;-71
2022/06/06 01:26:00;;;;;;;;;;;;;;;18.02;63.18;100391.78;5510559;32;34354;-71
2022/06/06 01:29:18;;;;;;;2.22;2.03;;;;;;;18.07;64.67;100397.34;5510558;32;35108;-71
2022/06/06 01:32:22;;;;;;;3.05;1.90;;;;;;;18.28;64.83;100416.84;5510588;32;34173;-71
2022/06/06 01:35:40;;;;;;;2.20;2.00;;;;;;;18.34;64.00;100430.25;5510129;32;34691;-71
2022/06/06 01:38:44;;;;;;;7.72;1.90;;;;;;;18.43;62.98;100437.00;5510398;32;34827;-71
2022/06/06 01:42:08;;;;;;;2.20;1.95;;;;;;;18.49;62.10;100436.09;5510147;32;34108;-71
2022/06/06 01:45:41;;;;;;;2.47;1.90;;;;;;;18.62;60.28;100429.84;5510175;32;34179;-70
2022/06/06 01:48:45;;;;;;;1.98;1.62;;;;;;;18.81;59.26;100425.34;5509935;32;34245;-70
2022/06/06 01:52:05;;;;;;;3.20;1.92;;;;;;;18.94;60.39;100431.41;5510204;32;34180;-71
2022/06/06 01:55:07;;;;;;;4.40;2.05;;;;;;;19.26;59.35;100448.28;5528535;31;34868;-71
2022/06/06 01:58:15;;;;;;;2.20;1.83;;;;;;;19.18;59.40;100458.50;5589260;31;34196;-70
2022/06/06 02:01:19;;;;;;;5.45;1.98;;;;;;;19.08;59.11;100459.00;5589906;31;34286;-71
2022/06/06 02:04:22;;;;;;;1.98;1.77;;;;;;;19.02;59.51;100455.34;5589687;31;34178;-71
2022/06/06 02:07:24;;;;;;;2.70;1.90;;;;;;;19.04;59.09;100465.88;5589125;31;34085;-71
2022/06/06 02:10:27;;;;;;;3.75;2.00;;;;;;;19.06;59.15;100477.25;5589528;31;35438;-71
2022/06/06 02:13:30;;;;;;;2.92;1.92;;;;;;;19.21;59.04;100479.59;5589508;31;34838;-70
2022/06/06 02:16:33;;;;;;;2.97;2.20;;;;;;;19.12;59.89;100487.91;5589756;31;34250;-71
2022/06/06 02:19:36;;;;;;;2.78;2.10;;;;;;;19.17;59.89;100484.56;5589720;31;34915;-71
2022/06/06 02:22:39;;;;;;;3.78;2.10;;;;;;;19.18;60.41;100483.53;5589469;31;34945;-71
2022/06/06 02:25:41;;;;;;;3.15;2.00;;;;;;;19.05;60.98;100467.53;5589375;31;34151;-71
2022/06/06 02:28:45;;;;;;;2.95;2.10;;;;;;;18.99;61.40;100469.22;5589363;31;34503;-71
2022/06/06 02:31:47;;;;;;;2.10;1.75;;;;;;;18.88;61.76;100461.88;5589323;31;34207;-71
2022/06/06 02:34:50;;;;;;;4.25;2.10;;;;;;;18.82;61.82;100457.37;5589501;31;34780;-71
2022/06/06 02:37:56;;;;;;;2.10;1.87;;;;;;;18.80;62.62;100446.03;5589235;31;34137;-71
2022/06/06 02:41:07;;;;;;;2.20;2.00;;;;;;;18.71;62.50;100443.81;5589272;31;34982;-71
2022/06/06 02:44:10;;;;;;;2.58;2.20;;;;;;;18.67;62.35;100459.56;5588480;31;34759;-71
2022/06/06 02:47:14;;;;;;;5.50;2.20;;;;;;;18.73;62.43;100464.09;5589140;31;34268;-71
2022/06/06 02:50:19;;;;;;;2.37;1.62;;;;;;;18.83;64.05;100464.37;5589067;31;34835;-71
2022/06/06 02:53:22;;;;;;;5.15;2.08;;;;;;;18.63;62.26;100463.75;5589152;31;34162;-71
2022/06/06 02:56:25;;;;;;;2.85;2.10;;;;;;;18.70;62.36;100466.38;5588964;31;35361;-71
2022/06/06 02:59:30;;;;;;;2.92;2.20;;;;;;;18.70;62.84;100480.63;5589028;31;34865;-70
2022/06/06 03:02:35;;;;;;;6.03;2.30;;;;;;;18.67;62.26;100483.75;5589051;31;34294;-70
2022/06/06 03:06:03;;;;;;;2.78;2.10;;;;;;;18.76;61.11;100481.63;5588938;31;34486;-71
2022/06/06 03:09:35;;;;;;;2.78;2.10;;;;;;;18.71;60.85;100471.53;5588144;31;34157;-71
2022/06/06 03:13:10;;;;;;;2.30;2.10;;;;;;;18.67;61.27;100470.31;5565119;31;34575;-71
2022/06/06 03:23:51;;;;;;;2.03;1.83;;;;;;;18.78;61.37;100469.62;5588619;31;34819;-71
2022/06/06 03:27:04;;;;;;;4.30;2.10;;;;;;;18.73;61.77;100469.47;5588529;31;34258;-71
2022/06/06 03:30:13;;;;;;;3.40;2.17;;;;;;;18.70;62.62;100463.69;5588570;31;34311;-71
2022/06/06 03:33:17;;;;;;;2.80;2.20;;;;;;;18.82;60.37;100460.06;5588149;31;34436;-71
2022/06/06 03:36:25;;;;;;;3.30;1.92;;;;;;;18.82;60.56;100445.81;5588542;31;34849;-71
2022/06/06 03:40:05;;;;;;;3.28;2.50;;;;;;;18.79;61.08;100430.09;5588539;31;34870;-71
2022/06/06 03:43:25;;;;;;;3.10;2.12;;;;;;;18.78;61.52;100432.00;5545839;31;34149;-71
2022/06/06 03:46:47;;;;;;;2.28;2.00;;;;;;;18.74;61.83;100443.38;5587375;31;35448;-71
2022/06/06 03:50:20;;;;;;;7.20;2.22;;;;;;;18.83;62.52;100439.41;5588037;31;34208;-71
2022/06/06 03:53:41;;;;;;;2.92;2.33;;;;;;;18.85;62.72;100430.06;5588058;31;34904;-71
2022/06/06 03:56:59;;;;;;;3.15;2.25;;;;;;;18.75;63.99;100428.91;5587887;31;34868;-71
2022/06/06 04:00:12;;;;;;;3.95;2.50;;;;;;;18.71;64.45;100425.84;5587859;31;34905;-71
2022/06/06 04:03:15;;;;;;;4.68;2.45;;;;;;;18.70;64.56;100418.81;5588120;31;34405;-71
2022/06/06 04:06:20;;;;;;;2.78;2.28;;;;;;;18.67;65.17;100409.34;5587817;31;34263;-71
2022/06/06 04:09:22;;;;;;;2.55;2.12;;;;;;;18.67;64.57;100412.03;5587810;31;34510;-71
2022/06/06 04:12:39;;;;;;;3.42;2.40;;;;;;;18.86;65.06;100414.75;5587601;31;34139;-71
2022/06/06 04:16:17;;;;;;;5.32;2.30;;;;;;;19.00;63.25;100418.97;5587604;31;34233;-71
2022/06/06 04:19:42;;;;;;;3.92;2.20;;;;;;;18.66;64.04;100420.31;5586220;31;34157;-71
2022/06/06 04:22:57;;;;;;;2.65;2.25;;;;;;;18.62;64.22;100414.56;5590488;31;34164;-71
2022/06/06 04:26:15;;;;;;;5.10;2.70;;;;;;;18.61;64.00;100412.06;5590580;31;34159;-71
2022/06/06 04:29:33;;;;;;;3.17;2.20;;;;;;;18.60;64.92;100405.88;5589642;31;34922;-71
2022/06/06 04:32:44;;;;;;;5.22;2.53;;;;;;;18.58;64.37;100415.22;5590296;31;34958;-72
2022/06/06 04:36:19;;;;;;;3.85;2.60;;;;;;;18.59;64.50;100414.16;5590304;31;34257;-71
2022/06/06 04:39:50;;;;;;;3.65;2.35;;;;;;;18.70;63.76;100418.00;5590338;31;34672;-70
2022/06/06 04:43:17;;;;;;;2.97;2.40;;;;;;;18.64;63.73;100428.56;5577018;31;34139;-71
2022/06/06 04:46:29;;;;;;;4.20;2.30;;;;;;;18.55;64.34;100439.81;5590325;31;33953;-71
2022/06/06 04:49:33;;;;;;;4.10;2.55;;;;;;;18.79;64.39;100440.84;5590106;31;34340;-71
2022/06/06 04:52:39;;;;;;;4.78;2.60;;;;;;;18.81;64.50;100444.16;5590191;31;34096;-72
2022/06/06 04:55:44;;;;;;;5.93;2.80;;;;;;;18.90;64.08;100442.84;5590097;31;34374;-72
2022/06/06 04:58:51;;;;;;;2.45;2.25;;;;;;;18.68;65.82;100453.16;5589365;31;34151;-72
2022/06/06 05:01:54;;;;;;;3.03;2.55;;;;;;;18.92;65.87;100455.03;5590468;31;34180;-71
2022/06/06 05:04:57;;;;;;;3.00;2.37;;;;;;;18.86;65.78;100458.59;5590156;31;34145;-72
2022/06/06 05:08:15;;;;;;;3.00;2.30;;;;;;;18.86;65.79;100457.75;5590190;31;34342;-72
2022/06/06 05:11:35;;;;;;;2.78;2.50;;;;;;;18.87;65.95;100475.53;5590079;31;34898;-71
2022/06/06 05:14:47;;;;;;;2.90;2.60;;;;;;;19.05;64.89;100475.59;5590087;31;34913;-72
2022/06/06 05:18:01;;;;;;;6.57;2.70;;;;;;;19.16;64.33;100474.03;5590006;31;34218;-72
2022/06/06 05:21:33;;;;;;;3.37;2.45;;;;;;;19.29;63.87;100477.44;5589839;31;34221;-72
2022/06/06 05:25:02;;;;;;;3.75;2.47;;;;;;;19.15;64.50;100472.41;5590081;31;35059;-72
2022/06/06 05:28:39;;;;;;;2.72;2.30;;;;;;;19.48;63.78;100479.12;5589898;31;34327;-72
2022/06/06 05:31:53;;;;;;;3.20;2.17;;;;;;;19.72;62.62;100485.47;5564690;31;34162;-72
2022/06/06 05:35:01;;;;;;;4.50;2.40;;;;;;;19.85;62.77;100481.78;5589677;31;34222;-72
2022/06/06 05:38:46;;;;;;;3.42;2.78;;;;;;;19.73;62.35;100487.13;5589839;31;34325;-71
2022/06/06 05:42:11;;;;;;;3.15;2.60;;;;;;;19.98;62.44;100484.34;5581911;31;34467;-71
2022/06/06 05:45:40;;;;;;;3.25;2.50;;;;;;;19.80;62.54;100493.25;5590057;31;34202;-72
2022/06/06 05:49:27;;;;;;;4.15;2.72;;;;;;;19.82;63.23;100493.84;5589406;31;34118;-73
2022/06/06 05:52:32;;;;;;;6.15;2.70;;;;;;;20.27;61.32;100488.09;5589610;31;34290;-71
2022/06/06 05:55:50;;;;;;;4.32;2.47;;;;;;;20.11;60.43;100489.56;5589842;31;34297;-72
2022/06/06 05:59:38;;;;;;;4.60;2.40;;;;;;;20.33;60.35;100489.94;5589533;31;34960;-72
2022/06/06 06:02:46;;;;;;;2.80;2.37;;;;;;;20.26;59.57;100494.53;5576493;31;34449;-72
2022/06/06 06:05:59;;;;;;;3.90;2.12;;;;;;;20.59;59.46;100496.78;5589626;31;34217;-72
2022/06/06 06:09:28;;;;;;;3.25;2.17;;;;;;;20.56;59.49;100499.97;5589479;31;34201;-72
2022/06/06 06:13:19;;;;;;;2.60;2.22;;;;;;;20.77;59.47;100502.09;5565463;31;34606;-73
2022/06/06 06:16:26;;;;;;;3.20;2.10;;;;;;;20.69;60.32;100499.75;5512202;31;34117;-72
2022/06/06 06:19:55;;;;;;;3.10;2.50;;;;;;;20.98;60.06;100498.88;5589526;31;34247;-72
2022/06/06 06:23:04;;;;;;;4.23;2.60;;;;;;;20.88;60.28;100498.63;5589483;31;34843;-72
2022/06/06 06:26:07;;;;;;;2.67;2.30;;;;;;;20.76;61.67;100503.19;5589823;31;34216;-72
2022/06/06 06:29:10;;;;;;;4.12;3.15;;;;;;;21.16;61.70;100504.19;5588384;31;33163;-72
2022/06/06 06:32:16;;;;;;;6.10;3.17;;;;;;;21.15;62.80;100507.13;5588029;31;33762;-73
2022/06/06 06:35:37;;;;;;;2.67;2.15;;;;;;;21.09;63.60;100503.47;5589571;31;34269;-72
2022/06/06 06:38:49;;;;;;;4.12;2.40;;;;;;;21.06;64.22;100503.91;5589534;31;34840;-72
2022/06/06 06:42:10;;;;;;;2.92;2.10;;;;;;;21.30;63.94;100512.84;5588839;31;34870;-72
2022/06/06 06:45:23;;;;;;;3.70;2.50;;;;;;;21.52;62.37;100510.41;5589197;31;34311;-72
2022/06/06 06:48:38;;;;;;;3.35;2.45;;;;;;;21.77;61.98;100507.44;5588346;31;34545;-72
2022/06/06 06:51:47;;;;;;;2.80;2.25;;;;;;;21.62;62.52;100508.75;5589204;31;34306;-71
2022/06/06 06:55:25;;;;;;;3.72;2.30;;;;;;;21.79;63.69;100516.94;5589026;31;34831;-72
2022/06/06 06:58:52;;;;;;;4.28;2.28;;;;;;;22.00;61.35;100510.09;5589158;31;34389;-71
2022/06/06 07:09:43;;;;;;;2.83;2.12;;;;;;;21.55;61.17;100510.75;5588845;31;34136;-72
2022/06/06 07:13:08;;;;;;;2.35;2.15;;;;;;;21.38;57.56;100509.00;5587947;31;33250;-73
2022/06/06 07:16:19;;;;;;;4.37;2.17;;;;;;;21.55;56.26;100508.03;5588832;31;35456;-72
2022/06/06 07:19:30;;;;;;;3.75;2.25;;;;;;;21.90;55.98;100504.47;5588009;31;33434;-72
2022/06/06 07:26:03;;;;;;;3.47;2.20;;;;;;;21.61;57.70;100515.22;5588537;31;34459;-72
2022/06/06 07:29:07;;;;;;;3.50;2.25;;;;;;;21.25;58.88;100510.06;5587673;31;32737;-73
2022/06/06 07:32:16;;;;;;;3.17;2.53;;;;;;;21.03;59.56;100508.94;5588188;31;34261;-72
2022/06/06 07:35:47;;;;;;;4.68;2.47;;;;;;;20.88;60.94;100520.19;5587493;31;34713;-72
2022/06/06 07:39:15;;;;;;;3.53;2.37;;;;;;;20.76;61.66;100519.34;5588225;31;34354;-73
2022/06/06 07:42:37;;;;;;;2.75;2.50;;;;;;;21.00;61.01;100517.53;5587288;31;34862;-73
2022/06/06 07:45:49;;;;;;;4.32;2.95;;;;;;;21.53;58.90;100525.56;5587260;31;32794;-73
2022/06/06 07:49:06;;;;;;;3.10;2.60;;;;;;;21.83;58.30;100533.50;5587737;31;34558;-69
2022/06/06 07:52:17;;;;;;;3.50;2.50;;;;;;;22.20;56.60;100526.72;5587901;31;34571;-72
2022/06/06 07:55:53;;;;;;;5.78;2.53;;;;;;;22.13;55.02;100534.16;5589496;31;34094;-72
2022/06/06 07:59:10;;;;;;;2.97;2.53;;;;;;;21.95;54.27;100542.41;5570129;31;34855;-72
2022/06/06 08:02:45;;;;;;;4.32;2.67;;;;;;;22.39;52.62;100536.28;5590584;31;34516;-73
2022/06/06 08:06:14;;;;;;;4.18;2.75;;;;;;;22.84;51.75;100541.75;5591057;31;34091;-73
2022/06/06 08:09:39;;;;;;;4.70;2.35;;;;;;;22.77;50.73;100543.78;5590118;31;34630;-72
2022/06/06 08:13:23;;;;;;;3.87;2.40;;;;;;;22.77;52.28;100542.97;5590308;31;34221;-72
2022/06/06 08:17:10;;;;;;;8.02;2.30;;;;;;;23.42;50.49;100545.13;5563829;31;32607;-72
2022/06/06 08:20:27;;;;;;;4.60;2.42;;;;;;;22.92;51.17;100540.53;5575089;31;34175;-73
2022/06/06 08:23:33;;;;;;;3.00;2.50;;;;;;;23.15;50.94;100537.66;5590316;31;34322;-72
2022/06/06 08:26:41;;;;;;;3.47;2.60;;;;;;;22.92;51.39;100522.41;5590278;31;34202;-71
2022/06/06 08:29:45;;;;;;;5.45;2.75;;;;;;;22.26;53.45;100530.34;5590231;31;34820;-71
2022/06/06 08:32:48;;;;;;;3.05;2.53;;;;;;;22.12;54.56;100532.53;5590003;31;34294;-71
2022/06/06 08:36:25;;;;;;;3.25;2.65;;;;;;;22.13;55.14;100533.31;5589544;31;34217;-72
2022/06/06 08:39:48;;;;;;;3.37;2.58;;;;;;;22.40;54.59;100532.53;5589846;31;34491;-72
2022/06/06 08:43:01;;;;;;;4.47;2.65;;;;;;;22.45;54.38;100527.22;5589838;31;35026;-73
2022/06/06 08:46:14;;;;;;;5.20;2.75;;;;;;;23.27;53.46;100530.28;5588857;31;34876;-71
2022/06/06 08:53:34;;;;;;;3.08;2.78;;;;;;;24.47;50.21;100525.91;5589728;31;34181;-73
2022/06/06 08:56:52;;;;;;;4.97;2.00;;;;;;;25.46;46.24;100521.63;5589922;31;34215;-71
2022/06/06 09:00:16;;;;;;;2.97;1.98;;;;;;;25.29;43.81;100518.25;5589938;31;34875;-72
2022/06/06 09:03:43;;;;;;;2.55;2.12;;;;;;;25.21;45.42;100516.03;5589757;31;34247;-73
2022/06/06 09:07:07;;;;;;;4.15;2.20;;;;;;;25.69;44.09;100516.91;5589523;31;35617;-72
2022/06/06 09:10:53;;;;;;;3.12;2.22;;;;;;;27.79;39.10;100524.78;5589751;31;34335;-72
2022/06/06 09:14:23;;;;;;;2.20;2.00;;;;;;;27.39;39.06;100519.44;5589992;31;34995;-73
2022/06/06 09:17:50;;;;;;;3.17;1.85;;;;;;;27.60;39.89;100512.88;5588896;31;34521;-74
2022/06/06 09:21:18;;;;;;;1.87;1.70;;;;;;;28.20;39.10;100511.03;5589686;31;34222;-72
2022/06/06 09:24:52;;;;;;;2.70;1.87;;;;;;;27.77;38.24;100505.19;5589798;31;34125;-74
2022/06/06 09:28:22;;;;;;;1.75;1.65;;;;;;;30.67;32.44;100509.66;5589599;31;34808;-74
2022/06/06 09:31:40;;;;;;;5.37;2.20;;;;;;;31.90;29.84;100503.31;5588872;31;33655;-73
2022/06/06 09:35:13;;;;;;;2.37;1.85;;;;;;;32.04;30.95;100494.25;5589536;31;34567;-73
2022/06/06 09:38:53;;;;;;;2.12;1.90;;;;;;;30.50;31.81;100491.81;5589212;31;34207;-72
2022/06/06 09:42:15;;;;;;;2.17;1.77;;;;;;;28.69;35.02;100481.78;5589661;31;34352;-75
2022/06/06 09:45:33;;;;;;;1.92;1.60;;;;;;;29.69;34.61;100487.41;5589728;31;34273;-73
2022/06/06 09:48:51;;;;;;;1.70;1.60;;;;;;;28.88;34.00;100484.66;5589420;31;34368;-70
2022/06/06 09:52:31;;;;;;;3.80;1.80;;;;;;;28.74;34.01;100481.78;5589565;31;34092;-74
2022/06/06 10:00:38;;;;;;;1.98;1.55;;;;;;;31.99;28.58;100478.72;5574350;31;34205;-71
2022/06/06 10:04:04;;;;;;;1.67;1.50;;;;;;;31.18;29.50;100463.06;5490814;32;34170;-73
2022/06/06 10:07:32;;;;;;;3.15;1.80;;;;;;;31.08;31.30;100459.38;5490856;32;34043;-72
2022/06/06 10:10:47;;;;;;;5.20;1.77;;;;;;;29.77;32.21;100462.12;5478309;32;34854;-72
2022/06/06 10:14:09;;;;;;;2.10;1.73;;;;;;;32.18;30.69;100462.12;5490864;32;35418;-73
2022/06/06 10:17:27;;;;;;;2.10;1.60;;;;;;;33.43;27.34;100468.34;5476598;32;33315;-74
2022/06/06 10:20:54;;;;;;;2.03;1.65;;;;;;;33.92;27.55;100456.22;5491193;32;34235;-72
2022/06/06 10:24:16;;;;;;;1.60;1.40;;;;;;;34.42;25.76;100461.31;5477965;32;33643;-70
2022/06/06 10:27:37;;;;;;;1.77;1.50;;;;;;;32.57;27.22;100456.81;5489970;32;35401;-71
2022/06/06 10:31:14;;;;;;;1.52;1.40;;;;;;;32.75;27.23;100447.59;5490771;32;34254;-71
2022/06/06 10:34:48;;;;;;;1.60;1.40;;;;;;;34.51;23.70;100453.84;5490426;32;34287;-69
2022/06/06 10:37:58;;;;;;;1.45;1.35;;;;;;;35.58;23.13;100451.78;5548296;32;35512;-71
2022/06/06 10:41:07;;;;;;;2.10;1.35;;;;;;;34.43;25.50;100454.63;5569602;32;34655;-69
2022/06/06 10:44:19;;;;;;;3.37;1.30;;;;;;;35.76;23.58;100455.28;5555884;32;33246;-71
2022/06/06 10:47:59;;;;;;;2.20;1.50;;;;;;;36.16;22.47;100450.94;5569433;32;34981;-70
2022/06/06 10:51:36;;;;;;;1.40;1.30;;;;;;;33.25;26.81;100438.34;5569248;32;34825;-71
2022/06/06 10:55:32;;;;;;;3.42;1.50;;;;;;;33.11;26.17;100435.66;5569527;32;35431;-70
2022/06/06 10:58:56;;;;;;;4.10;1.42;;;;;;;34.97;24.01;100431.06;5569345;32;34116;-73
2022/06/06 11:02:05;;;;;;;1.80;1.40;;;;;;;35.10;24.87;100434.78;5569006;32;34195;-69
2022/06/06 11:05:29;;;;;;;1.92;1.30;;;;;;;36.56;21.81;100433.84;5569346;32;34297;-73
2022/06/06 11:08:44;;;;;;;2.50;1.40;;;;;;;36.15;22.91;100429.19;5569289;32;34324;-71
2022/06/06 11:12:23;;;;;;;1.62;1.30;;;;;;;37.47;21.16;100429.94;5568837;32;34608;-72
2022/06/06 11:15:36;;;;;;;1.70;1.40;;;;;;;36.79;21.41;100428.78;5569445;32;34218;-73
2022/06/06 11:19:08;;;;;;;2.83;1.30;;;;;;;37.07;21.54;100415.97;5569097;32;34222;-73
2022/06/06 11:22:29;;;;;;;2.72;1.37;;;;;;;35.00;23.36;100411.13;5569329;32;34616;-73
2022/06/06 11:25:48;;;;;;;1.70;1.27;;;;;;;34.16;24.59;100402.63;5569315;32;34245;-72
2022/06/06 11:29:16;;;;;;;2.65;1.40;;;;;;;32.27;26.50;100406.19;5569148;32;34289;-71
2022/06/06 11:32:53;;;;;;;3.08;1.40;;;;;;;33.71;24.32;100407.59;5572208;31;34982;-74
2022/06/06 11:36:24;;;;;;;1.60;1.30;;;;;;;37.68;21.05;100410.44;5590890;31;34197;-69
2022/06/06 11:39:55;;;;;;;1.40;1.17;;;;;;;36.74;20.99;100410.47;5590906;31;34228;-71
2022/06/06 11:43:16;;;;;;;2.72;1.55;;;;;;;38.66;19.53;100403.44;5591115;31;34251;-73
2022/06/06 11:46:37;;;;;;;3.20;1.45;;;;;;;39.53;18.76;100400.50;5590826;31;35493;-73
2022/06/06 11:50:17;;;;;;;2.47;1.33;;;;;;;40.58;18.71;100401.16;5590538;31;34223;-72
2022/06/06 11:53:54;;;;;;;4.05;1.10;;;;;;;40.66;17.60;100405.75;5590820;31;34217;-70
2022/06/06 11:57:18;;;;;;;1.67;1.47;;;;;;;38.88;17.98;100393.72;5590613;31;34559;-72
2022/06/06 12:00:31;;;;;;;1.92;1.20;;;;;;;38.24;19.50;100389.19;5590601;31;34192;-73
2022/06/06 12:03:58;;;;;;;1.17;1.08;;;;;;;37.15;18.44;100386.56;5590542;31;34209;-73
2022/06/06 12:07:26;;;;;;;2.25;1.40;;;;;;;38.32;18.99;100379.91;5590467;31;34270;-72
2022/06/06 12:10:44;;;;;;;2.65;1.23;;;;;;;40.05;17.32;100372.31;5590727;31;34535;-72
2022/06/06 12:14:17;;;;;;;1.98;1.40;;;;;;;40.02;17.12;100378.59;5590680;31;34186;-72
2022/06/06 12:17:40;;;;;;;1.48;1.37;;;;;;;39.32;18.42;100366.69;5589697;31;32543;-73
2022/06/06 12:20:58;;;;;;;2.25;1.20;;;;;;;39.93;17.12;100366.91;5590597;31;34319;-72
2022/06/06 12:24:25;;;;;;;1.10;1.00;;;;;;;39.82;16.99;100365.87;5590563;31;34294;-71
2022/06/06 12:28:01;;;;;;;3.60;1.00;;;;;;;41.36;16.58;100357.19;5590447;31;34841;-72
2022/06/06 12:31:22;;;;;;;1.33;1.10;;;;;;;40.53;16.56;100348.63;5590380;31;34243;-71
2022/06/06 12:34:51;;;;;;;1.55;1.20;;;;;;;40.43;16.71;100351.25;5589003;31;33063;-70
2022/06/06 12:38:06;;;;;;;2.87;1.10;;;;;;;41.24;16.19;100349.88;5589385;31;34354;-71
2022/06/06 12:41:29;;;;;;;1.40;1.17;;;;;;;40.85;15.57;100351.22;5589715;31;34226;-74
2022/06/06 12:45:00;;;;;;;1.60;1.10;;;;;;;40.94;15.40;100341.44;5588751;31;34459;-72
2022/06/06 12:48:21;;;;;;;1.20;1.10;;;;;;;41.30;15.10;100342.78;5590278;31;34903;-72
2022/06/06 12:52:01;;;;;;;1.10;1.00;;;;;;;41.72;14.48;100337.06;5589854;31;34829;-71
2022/06/06 12:55:33;;;;;;;1.00;0.90;;;;;;;41.69;14.45;100337.78;5590153;31;34837;-72
2022/06/06 12:58:44;;;;;;;1.33;0.88;;;;;;;43.26;13.20;100336.25;5590036;31;35486;-74
2022/06/06 13:02:07;;;;;;;1.37;1.00;;;;;;;42.62;11.95;100328.50;5590291;31;34229;-71
2022/06/06 13:05:33;;;;;;;3.25;1.08;;;;;;;41.71;13.15;100334.63;5589996;31;34822;-72
2022/06/06 13:08:55;;;;;;;3.75;1.12;;;;;;;42.74;12.55;100326.28;5579714;31;32744;-73
2022/06/06 13:12:10;;;;;;;1.35;1.10;;;;;;;42.03;13.20;100317.12;5589756;31;34564;-72
2022/06/06 13:15:27;;;;;;;2.65;1.10;;;;;;;42.11;12.71;100315.25;5589003;31;32768;-73
2022/06/06 13:18:45;;;;;;;4.25;1.05;;;;;;;42.14;13.41;100308.91;5590148;31;34331;-73
2022/06/06 13:21:59;;;;;;;;;;;;;;;40.77;15.29;100309.34;5589412;31;32059;-70
2022/06/06 13:25:17;;;;;;;1.75;1.10;;;;;;;40.70;15.00;100306.47;5589606;31;34468;-73
2022/06/06 13:28:21;;;;;;;1.48;1.10;;;;;;;39.56;14.68;100308.13;5589165;31;34199;-72
2022/06/06 13:31:52;;;;;;;1.80;1.20;;;;;;;41.52;14.35;100302.16;5589339;31;34329;-72
2022/06/06 13:35:07;;;;;;;1.30;1.17;;;;;;;42.38;13.77;100313.16;5589569;31;34801;-72
2022/06/06 13:38:17;;;;;;;2.60;1.37;;;;;;;43.20;13.62;100307.09;5588705;31;32718;-72
2022/06/06 13:41:54;;;;;;;5.37;1.55;;;;;;;44.25;13.30;100302.41;5589908;31;35094;-71
2022/06/06 13:45:18;;;;;;;1.52;1.23;;;;;;;45.00;12.28;100301.22;5588785;31;35491;-73
2022/06/06 13:48:46;;;;;;;1.30;1.20;;;;;;;45.32;13.52;100303.16;5589536;31;34525;-72
2022/06/06 13:51:57;;;;;;;1.62;1.27;;;;;;;43.29;14.30;100295.56;5588269;31;35561;-70
2022/06/06 13:55:33;;;;;;;5.05;1.40;;;;;;;42.10;15.56;100291.34;5589302;31;34567;-69
2022/06/06 13:58:54;;;;;;;4.70;1.30;;;;;;;39.63;17.79;100290.84;5547233;31;33034;-69
2022/06/06 14:02:15;;;;;;;2.62;1.37;;;;;;;41.07;15.95;100294.72;5589304;31;34899;-73
2022/06/06 14:05:57;;;;;;;1.40;1.30;;;;;;;43.35;14.39;100288.41;5588815;31;34260;-72
2022/06/06 14:09:05;;;;;;;1.62;1.30;;;;;;;41.33;16.09;100280.00;5589457;31;34496;-70
2022/06/06 14:12:13;;;;;;;1.48;1.10;;;;;;;43.06;14.66;100290.22;5589250;31;34793;-71
2022/06/06 14:15:19;;;;;;;3.35;1.37;;;;;;;41.04;16.17;100276.00;5589117;31;34293;-72
2022/06/06 14:18:32;;;;;;;1.77;1.30;;;;;;;40.67;16.60;100271.03;5588430;31;33289;-71
2022/06/06 14:21:38;;;;;;;1.40;1.30;;;;;;;39.71;17.49;100281.47;5589179;31;34895;-73
2022/06/06 14:24:55;;;;;;;1.77;1.37;;;;;;;36.36;20.94;100282.75;5589075;31;34519;-73
2022/06/06 14:28:17;;;;;;;1.42;1.33;;;;;;;34.85;22.10;100277.41;5589060;31;34176;-71
2022/06/06 14:31:25;;;;;;;1.70;1.60;;;;;;;32.88;24.50;100266.44;5587728;31;33030;-72
2022/06/06 14:34:35;;;;;;;5.55;1.90;;;;;;;34.64;22.86;100275.66;5589130;31;34249;-72
2022/06/06 14:37:37;;;;;;;1.50;1.40;;;;;;;37.85;19.99;100272.50;5588275;31;34334;-72
2022/06/06 14:41:06;;;;;;;1.50;1.40;;;;;;;37.28;20.10;100271.94;5589243;31;34904;-70
2022/06/06 14:44:10;;;;;;;;;;;;;;;35.68;21.74;100271.22;5589296;31;34266;-70
2022/06/06 14:47:12;;;;;;;2.35;1.67;;;;;;;35.97;21.88;100279.38;5589064;31;35123;-70
2022/06/06 14:53:48;;;;;;;2.58;1.60;;;;;;;37.10;20.89;100274.19;5588853;31;34542;-72
2022/06/06 14:56:53;;;;;;;3.05;1.83;;;;;;;37.77;19.54;100267.91;5588550;31;34897;-72
2022/06/06 15:00:01;;;;;;;3.37;1.70;;;;;;;39.23;18.71;100268.91;5588572;31;34350;-73
2022/06/06 15:03:08;;;;;;;1.87;1.52;;;;;;;40.01;17.90;100265.03;5588207;31;34350;-72
2022/06/06 15:06:27;;;;;;;2.67;1.60;;;;;;;39.64;18.10;100259.94;5588527;31;34817;-73
2022/06/06 15:09:56;;;;;;;2.10;1.52;;;;;;;38.91;18.22;100257.09;5587803;31;34790;-71
2022/06/06 15:12:59;;;;;;;3.00;1.70;;;;;;;38.66;18.60;100257.28;5588344;31;34157;-72
2022/06/06 15:16:05;;;;;;;2.97;1.60;;;;;;;37.49;19.69;100247.69;5588308;31;34625;-71
2022/06/06 15:19:21;;;;;;;4.37;1.75;;;;;;;35.31;22.43;100251.66;5588380;31;34208;-72
2022/06/06 15:22:31;;;;;;;2.42;1.62;;;;;;;32.82;25.31;100243.00;5587130;31;33678;-69
2022/06/06 15:25:42;;;;;;;2.20;1.77;;;;;;;30.59;28.90;100240.06;5588276;31;35015;-71
2022/06/06 15:29:23;;;;;;;2.15;1.90;;;;;;;29.69;29.78;100235.81;5587815;31;35432;-72
2022/06/06 15:32:39;;;;;;;1.90;1.60;;;;;;;29.10;31.28;100236.38;5588334;31;34936;-73
2022/06/06 15:36:03;;;;;;;2.25;1.95;;;;;;;28.66;32.68;100235.84;5588387;31;35133;-70
2022/06/06 15:39:25;;;;;;;2.15;1.90;;;;;;;28.61;31.95;100231.22;5587792;31;34469;-73
2022/06/06 15:42:27;;;;;;;2.60;1.70;;;;;;;28.48;33.27;100234.66;5587937;31;34175;-72
2022/06/06 15:46:08;;;;;;;3.55;2.03;;;;;;;29.18;31.58;100240.41;5588476;31;34303;-72
2022/06/06 15:49:29;;;;;;;2.67;1.92;;;;;;;30.09;30.26;100234.38;5587775;31;34680;-70
2022/06/06 15:53:04;;;;;;;3.17;2.12;;;;;;;29.91;30.19;100242.62;5587564;31;34942;-72
2022/06/06 15:56:21;;;;;;;1.83;1.70;;;;;;;30.56;29.97;100236.00;5586741;31;33823;-70